sensor_id;sensor_type;location;lat;lon;timestamp;P1;durP1;ratioP1;P2;durP2;ratioP2
9789;SDS011;4934;50.852;8.098;2022-08-27T00:00:40;26.17;;;13.05;;
9789;SDS011;4934;50.852;8.098;2022-08-27T00:03:06;31.73;;;15.10;;
9789;SDS011;4934;50.852;8.098;2022-08-27T00:05:31;29.02;;;14.05;;
9789;SDS011;4934;50.852;8.098;2022-08-27T00:07:57;27.25;;;14.43;;
9789;SDS011;4934;50.852;8.098;2022-08-27T00:10:23;29.00;;;14.23;;
9789;SDS011;4934;50.852;8.098;2022-08-27T00:12:51;28.85;;;14.02;;
9789;SDS011;4934;50.852;8.098;2022-08-27T00:15:17;26.98;;;13.15;;
9789;SDS011;4934;50.852;8.098;2022-08-27T00:17:44;26.48;;;14.00;;
9789;SDS011;4934;50.852;8.098;2022-08-27T00:20:11;23.80;;;13.77;;
9789;SDS011;4934;50.852;8.098;2022-08-27T00:22:39;33.22;;;14.15;;
9789;SDS011;4934;50.852;8.098;2022-08-27T00:25:05;26.52;;;13.43;;
9789;SDS011;4934;50.852;8.098;2022-08-27T00:27:31;29.73;;;14.02;;
9789;SDS011;4934;50.852;8.098;2022-08-27T00:29:57;27.35;;;12.90;;
9789;SDS011;4934;50.852;8.098;2022-08-27T00:32:23;30.05;;;12.93;;
9789;SDS011;4934;50.852;8.098;2022-08-27T00:34:48;24.50;;;11.10;;
9789;SDS011;4934;50.852;8.098;2022-08-27T00:37:14;27.98;;;12.70;;
9789;SDS011;4934;50.852;8.098;2022-08-27T00:39:39;26.13;;;14.07;;
9789;SDS011;4934;50.852;8.098;2022-08-27T00:42:05;25.00;;;12.38;;
9789;SDS011;4934;50.852;8.098;2022-08-27T00:44:32;25.02;;;13.70;;
9789;SDS011;4934;50.852;8.098;2022-08-27T00:47:00;25.73;;;12.02;;
9789;SDS011;4934;50.852;8.098;2022-08-27T00:55:07;30.90;;;13.15;;
9789;SDS011;4934;50.852;8.098;2022-08-27T00:57:37;28.08;;;13.88;;
9789;SDS011;4934;50.852;8.098;2022-08-27T01:00:07;22.45;;;13.50;;
9789;SDS011;4934;50.852;8.098;2022-08-27T01:02:36;23.30;;;13.15;;
9789;SDS011;4934;50.852;8.098;2022-08-27T01:05:07;20.38;;;13.02;;
9789;SDS011;4934;50.852;8.098;2022-08-27T01:07:36;26.63;;;13.05;;
9789;SDS011;4934;50.852;8.098;2022-08-27T01:13:46;29.17;;;12.98;;
9789;SDS011;4934;50.852;8.098;2022-08-27T01:16:14;26.35;;;13.45;;
9789;SDS011;4934;50.852;8.098;2022-08-27T01:18:42;27.63;;;13.65;;
9789;SDS011;4934;50.852;8.098;2022-08-27T01:27:00;26.27;;;14.15;;
9789;SDS011;4934;50.852;8.098;2022-08-27T01:29:27;25.67;;;14.15;;
9789;SDS011;4934;50.852;8.098;2022-08-27T01:31:58;28.35;;;14.75;;
9789;SDS011;4934;50.852;8.098;2022-08-27T01:34:31;28.27;;;13.73;;
9789;SDS011;4934;50.852;8.098;2022-08-27T01:36:56;24.35;;;12.40;;
9789;SDS011;4934;50.852;8.098;2022-08-27T01:39:22;28.63;;;15.23;;
9789;SDS011;4934;50.852;8.098;2022-08-27T01:41:48;24.55;;;13.77;;
9789;SDS011;4934;50.852;8.098;2022-08-27T01:44:14;30.70;;;14.20;;
9789;SDS011;4934;50.852;8.098;2022-08-27T01:46:40;38.13;;;16.10;;
9789;SDS011;4934;50.852;8.098;2022-08-27T01:49:05;30.00;;;15.27;;
9789;SDS011;4934;50.852;8.098;2022-08-27T01:54:00;27.10;;;15.55;;
9789;SDS011;4934;50.852;8.098;2022-08-27T01:56:25;27.05;;;15.02;;
9789;SDS011;4934;50.852;8.098;2022-08-27T01:58:51;27.05;;;14.57;;
9789;SDS011;4934;50.852;8.098;2022-08-27T02:01:16;28.75;;;14.15;;
9789;SDS011;4934;50.852;8.098;2022-08-27T02:03:43;30.33;;;15.38;;
9789;SDS011;4934;50.852;8.098;2022-08-27T02:06:11;26.20;;;14.90;;
9789;SDS011;4934;50.852;8.098;2022-08-27T02:08:37;25.48;;;13.98;;
9789;SDS011;4934;50.852;8.098;2022-08-27T02:11:03;28.90;;;14.20;;
9789;SDS011;4934;50.852;8.098;2022-08-27T02:13:30;27.65;;;13.90;;
9789;SDS011;4934;50.852;8.098;2022-08-27T02:15:55;27.73;;;14.95;;
9789;SDS011;4934;50.852;8.098;2022-08-27T02:18:21;30.17;;;13.90;;
9789;SDS011;4934;50.852;8.098;2022-08-27T02:20:46;27.90;;;15.18;;
9789;SDS011;4934;50.852;8.098;2022-08-27T02:23:13;29.55;;;16.10;;
9789;SDS011;4934;50.852;8.098;2022-08-27T02:25:40;22.45;;;13.98;;
9789;SDS011;4934;50.852;8.098;2022-08-27T02:28:06;25.27;;;14.45;;
9789;SDS011;4934;50.852;8.098;2022-08-27T02:30:32;29.00;;;14.55;;
9789;SDS011;4934;50.852;8.098;2022-08-27T02:33:02;36.00;;;15.35;;
9789;SDS011;4934;50.852;8.098;2022-08-27T02:35:29;25.02;;;14.07;;
9789;SDS011;4934;50.852;8.098;2022-08-27T02:37:56;30.20;;;15.27;;
9789;SDS011;4934;50.852;8.098;2022-08-27T02:40:22;24.67;;;13.75;;
9789;SDS011;4934;50.852;8.098;2022-08-27T02:42:48;25.05;;;14.27;;
9789;SDS011;4934;50.852;8.098;2022-08-27T02:45:14;26.75;;;14.07;;
9789;SDS011;4934;50.852;8.098;2022-08-27T02:47:40;27.15;;;13.57;;
9789;SDS011;4934;50.852;8.098;2022-08-27T02:50:06;27.65;;;15.23;;
9789;SDS011;4934;50.852;8.098;2022-08-27T02:52:33;26.48;;;15.13;;
9789;SDS011;4934;50.852;8.098;2022-08-27T02:54:59;28.90;;;15.65;;
9789;SDS011;4934;50.852;8.098;2022-08-27T02:57:25;28.73;;;14.07;;
9789;SDS011;4934;50.852;8.098;2022-08-27T02:59:51;26.00;;;15.57;;
9789;SDS011;4934;50.852;8.098;2022-08-27T03:02:17;22.85;;;13.90;;
9789;SDS011;4934;50.852;8.098;2022-08-27T03:04:44;26.90;;;15.23;;
9789;SDS011;4934;50.852;8.098;2022-08-27T03:07:10;25.40;;;15.10;;
9789;SDS011;4934;50.852;8.098;2022-08-27T03:09:36;25.95;;;13.85;;
9789;SDS011;4934;50.852;8.098;2022-08-27T03:12:02;28.23;;;15.10;;
9789;SDS011;4934;50.852;8.098;2022-08-27T03:14:28;26.67;;;13.68;;
9789;SDS011;4934;50.852;8.098;2022-08-27T03:16:55;28.33;;;14.57;;
9789;SDS011;4934;50.852;8.098;2022-08-27T03:19:41;31.00;;;15.48;;
9789;SDS011;4934;50.852;8.098;2022-08-27T03:22:07;27.08;;;13.43;;
9789;SDS011;4934;50.852;8.098;2022-08-27T03:24:33;24.77;;;14.00;;
9789;SDS011;4934;50.852;8.098;2022-08-27T03:26:59;23.70;;;14.23;;
9789;SDS011;4934;50.852;8.098;2022-08-27T03:29:25;24.10;;;13.43;;
9789;SDS011;4934;50.852;8.098;2022-08-27T03:31:52;25.95;;;13.77;;
9789;SDS011;4934;50.852;8.098;2022-08-27T03:34:18;22.88;;;13.55;;
9789;SDS011;4934;50.852;8.098;2022-08-27T03:36:44;24.25;;;12.75;;
9789;SDS011;4934;50.852;8.098;2022-08-27T03:39:09;21.05;;;12.90;;
9789;SDS011;4934;50.852;8.098;2022-08-27T03:41:35;25.98;;;12.55;;
9789;SDS011;4934;50.852;8.098;2022-08-27T03:44:00;25.23;;;12.95;;
9789;SDS011;4934;50.852;8.098;2022-08-27T03:46:26;20.92;;;11.88;;
9789;SDS011;4934;50.852;8.098;2022-08-27T03:48:54;21.77;;;12.45;;
9789;SDS011;4934;50.852;8.098;2022-08-27T03:51:20;18.98;;;11.25;;
9789;SDS011;4934;50.852;8.098;2022-08-27T03:53:47;23.17;;;11.52;;
9789;SDS011;4934;50.852;8.098;2022-08-27T03:56:12;18.95;;;9.68;;
9789;SDS011;4934;50.852;8.098;2022-08-27T03:58:39;15.73;;;9.05;;
9789;SDS011;4934;50.852;8.098;2022-08-27T04:01:04;14.30;;;8.68;;
9789;SDS011;4934;50.852;8.098;2022-08-27T04:03:32;14.80;;;8.48;;
9789;SDS011;4934;50.852;8.098;2022-08-27T04:05:59;14.13;;;8.38;;
9789;SDS011;4934;50.852;8.098;2022-08-27T04:08:25;16.48;;;8.15;;
9789;SDS011;4934;50.852;8.098;2022-08-27T04:10:51;16.15;;;8.40;;
9789;SDS011;4934;50.852;8.098;2022-08-27T04:13:18;16.33;;;8.75;;
9789;SDS011;4934;50.852;8.098;2022-08-27T04:15:44;15.68;;;8.30;;
9789;SDS011;4934;50.852;8.098;2022-08-27T04:18:11;12.65;;;7.70;;
9789;SDS011;4934;50.852;8.098;2022-08-27T04:20:40;13.27;;;7.68;;
9789;SDS011;4934;50.852;8.098;2022-08-27T04:23:06;12.68;;;7.45;;
9789;SDS011;4934;50.852;8.098;2022-08-27T04:25:33;12.82;;;7.32;;
9789;SDS011;4934;50.852;8.098;2022-08-27T04:28:03;9.68;;;6.20;;
9789;SDS011;4934;50.852;8.098;2022-08-27T04:30:29;10.43;;;5.72;;
9789;SDS011;4934;50.852;8.098;2022-08-27T04:32:55;10.18;;;5.72;;
9789;SDS011;4934;50.852;8.098;2022-08-27T04:35:22;8.75;;;4.88;;
9789;SDS011;4934;50.852;8.098;2022-08-27T04:37:48;8.27;;;4.80;;
9789;SDS011;4934;50.852;8.098;2022-08-27T04:40:13;10.30;;;4.53;;
9789;SDS011;4934;50.852;8.098;2022-08-27T04:42:39;7.80;;;4.00;;
9789;SDS011;4934;50.852;8.098;2022-08-27T04:45:05;7.03;;;3.78;;
9789;SDS011;4934;50.852;8.098;2022-08-27T04:47:31;6.18;;;3.35;;
9789;SDS011;4934;50.852;8.098;2022-08-27T04:49:57;8.73;;;3.28;;
9789;SDS011;4934;50.852;8.098;2022-08-27T04:52:23;5.82;;;3.22;;
9789;SDS011;4934;50.852;8.098;2022-08-27T04:54:49;5.80;;;3.03;;
9789;SDS011;4934;50.852;8.098;2022-08-27T04:57:15;5.70;;;3.03;;
9789;SDS011;4934;50.852;8.098;2022-08-27T04:59:40;6.03;;;3.17;;
9789;SDS011;4934;50.852;8.098;2022-08-27T05:02:06;8.35;;;2.78;;
9789;SDS011;4934;50.852;8.098;2022-08-27T05:04:34;9.18;;;3.55;;
9789;SDS011;4934;50.852;8.098;2022-08-27T05:07:02;6.82;;;3.67;;
9789;SDS011;4934;50.852;8.098;2022-08-27T05:09:28;6.28;;;3.10;;
9789;SDS011;4934;50.852;8.098;2022-08-27T05:11:54;7.85;;;2.60;;
9789;SDS011;4934;50.852;8.098;2022-08-27T05:14:20;6.07;;;3.10;;
9789;SDS011;4934;50.852;8.098;2022-08-27T05:16:47;5.72;;;2.42;;
9789;SDS011;4934;50.852;8.098;2022-08-27T05:19:13;3.80;;;2.45;;
9789;SDS011;4934;50.852;8.098;2022-08-27T05:21:42;4.50;;;2.60;;
9789;SDS011;4934;50.852;8.098;2022-08-27T05:24:10;5.78;;;2.67;;
9789;SDS011;4934;50.852;8.098;2022-08-27T05:26:36;4.07;;;2.50;;
9789;SDS011;4934;50.852;8.098;2022-08-27T05:29:02;5.90;;;2.58;;
9789;SDS011;4934;50.852;8.098;2022-08-27T05:31:29;3.25;;;2.20;;
9789;SDS011;4934;50.852;8.098;2022-08-27T05:33:55;3.92;;;2.30;;
9789;SDS011;4934;50.852;8.098;2022-08-27T05:36:22;5.88;;;2.17;;
9789;SDS011;4934;50.852;8.098;2022-08-27T05:38:51;4.22;;;1.65;;
9789;SDS011;4934;50.852;8.098;2022-08-27T05:41:18;6.20;;;2.33;;
9789;SDS011;4934;50.852;8.098;2022-08-27T05:43:48;3.40;;;1.70;;
9789;SDS011;4934;50.852;8.098;2022-08-27T05:46:15;3.25;;;1.90;;
9789;SDS011;4934;50.852;8.098;2022-08-27T05:48:43;3.20;;;2.28;;
9789;SDS011;4934;50.852;8.098;2022-08-27T05:51:10;4.38;;;2.25;;
9789;SDS011;4934;50.852;8.098;2022-08-27T05:53:38;3.28;;;1.85;;
9789;SDS011;4934;50.852;8.098;2022-08-27T05:56:09;4.00;;;2.10;;
9789;SDS011;4934;50.852;8.098;2022-08-27T05:58:37;3.25;;;1.85;;
9789;SDS011;4934;50.852;8.098;2022-08-27T06:01:21;4.20;;;2.38;;
9789;SDS011;4934;50.852;8.098;2022-08-27T06:03:48;4.03;;;2.33;;
9789;SDS011;4934;50.852;8.098;2022-08-27T06:06:16;5.60;;;2.92;;
9789;SDS011;4934;50.852;8.098;2022-08-27T06:08:42;5.03;;;2.65;;
9789;SDS011;4934;50.852;8.098;2022-08-27T06:11:08;4.22;;;2.58;;
9789;SDS011;4934;50.852;8.098;2022-08-27T06:13:34;4.20;;;2.47;;
9789;SDS011;4934;50.852;8.098;2022-08-27T06:16:04;4.10;;;2.30;;
9789;SDS011;4934;50.852;8.098;2022-08-27T06:18:32;4.60;;;2.22;;
9789;SDS011;4934;50.852;8.098;2022-08-27T06:20:58;4.72;;;2.65;;
9789;SDS011;4934;50.852;8.098;2022-08-27T06:23:25;6.55;;;3.00;;
9789;SDS011;4934;50.852;8.098;2022-08-27T06:25:51;5.32;;;3.05;;
9789;SDS011;4934;50.852;8.098;2022-08-27T06:28:20;6.05;;;3.00;;
9789;SDS011;4934;50.852;8.098;2022-08-27T06:30:47;4.60;;;2.95;;
9789;SDS011;4934;50.852;8.098;2022-08-27T06:33:13;7.03;;;3.20;;
9789;SDS011;4934;50.852;8.098;2022-08-27T06:35:39;4.63;;;2.80;;
9789;SDS011;4934;50.852;8.098;2022-08-27T06:38:05;5.32;;;3.00;;
9789;SDS011;4934;50.852;8.098;2022-08-27T06:40:31;4.32;;;2.70;;
9789;SDS011;4934;50.852;8.098;2022-08-27T06:42:57;5.30;;;2.85;;
9789;SDS011;4934;50.852;8.098;2022-08-27T06:45:24;4.97;;;2.88;;
9789;SDS011;4934;50.852;8.098;2022-08-27T06:47:50;8.23;;;3.55;;
9789;SDS011;4934;50.852;8.098;2022-08-27T06:50:16;5.35;;;3.22;;
9789;SDS011;4934;50.852;8.098;2022-08-27T06:52:44;9.23;;;3.92;;
9789;SDS011;4934;50.852;8.098;2022-08-27T06:55:11;5.68;;;3.17;;
9789;SDS011;4934;50.852;8.098;2022-08-27T06:57:37;5.70;;;3.38;;
9789;SDS011;4934;50.852;8.098;2022-08-27T07:00:04;4.82;;;2.97;;
9789;SDS011;4934;50.852;8.098;2022-08-27T07:04:57;8.38;;;3.30;;
9789;SDS011;4934;50.852;8.098;2022-08-27T07:07:22;8.43;;;3.47;;
9789;SDS011;4934;50.852;8.098;2022-08-27T07:09:48;5.63;;;2.95;;
9789;SDS011;4934;50.852;8.098;2022-08-27T07:12:14;7.97;;;3.28;;
9789;SDS011;4934;50.852;8.098;2022-08-27T07:14:39;8.02;;;3.97;;
9789;SDS011;4934;50.852;8.098;2022-08-27T07:17:05;6.22;;;3.50;;
9789;SDS011;4934;50.852;8.098;2022-08-27T07:19:32;7.15;;;3.47;;
9789;SDS011;4934;50.852;8.098;2022-08-27T07:22:02;6.57;;;3.53;;
9789;SDS011;4934;50.852;8.098;2022-08-27T07:24:28;6.05;;;3.72;;
9789;SDS011;4934;50.852;8.098;2022-08-27T07:26:54;7.38;;;4.03;;
9789;SDS011;4934;50.852;8.098;2022-08-27T07:29:20;7.80;;;4.63;;
9789;SDS011;4934;50.852;8.098;2022-08-27T07:31:46;8.02;;;4.20;;
9789;SDS011;4934;50.852;8.098;2022-08-27T07:34:11;6.05;;;3.55;;
9789;SDS011;4934;50.852;8.098;2022-08-27T07:36:37;5.45;;;3.53;;
9789;SDS011;4934;50.852;8.098;2022-08-27T07:39:05;7.88;;;3.35;;
9789;SDS011;4934;50.852;8.098;2022-08-27T07:41:31;6.03;;;3.63;;
9789;SDS011;4934;50.852;8.098;2022-08-27T07:44:18;6.35;;;3.40;;
9789;SDS011;4934;50.852;8.098;2022-08-27T07:46:49;7.38;;;3.50;;
9789;SDS011;4934;50.852;8.098;2022-08-27T07:49:15;7.15;;;3.80;;
9789;SDS011;4934;50.852;8.098;2022-08-27T07:51:41;6.38;;;3.10;;
9789;SDS011;4934;50.852;8.098;2022-08-27T07:54:07;7.18;;;3.38;;
9789;SDS011;4934;50.852;8.098;2022-08-27T07:56:32;6.15;;;3.05;;
9789;SDS011;4934;50.852;8.098;2022-08-27T07:58:58;8.55;;;2.75;;
9789;SDS011;4934;50.852;8.098;2022-08-27T08:01:24;6.82;;;2.90;;
9789;SDS011;4934;50.852;8.098;2022-08-27T08:03:49;4.38;;;2.42;;
9789;SDS011;4934;50.852;8.098;2022-08-27T08:06:15;6.80;;;2.80;;
9789;SDS011;4934;50.852;8.098;2022-08-27T08:08:41;5.28;;;3.22;;
9789;SDS011;4934;50.852;8.098;2022-08-27T08:11:11;5.03;;;2.60;;
9789;SDS011;4934;50.852;8.098;2022-08-27T08:13:39;4.97;;;2.88;;
9789;SDS011;4934;50.852;8.098;2022-08-27T08:16:05;4.00;;;2.90;;
9789;SDS011;4934;50.852;8.098;2022-08-27T08:18:31;6.38;;;3.30;;
9789;SDS011;4934;50.852;8.098;2022-08-27T08:20:58;5.65;;;2.75;;
9789;SDS011;4934;50.852;8.098;2022-08-27T08:23:25;3.75;;;2.38;;
9789;SDS011;4934;50.852;8.098;2022-08-27T08:25:51;5.78;;;2.55;;
9789;SDS011;4934;50.852;8.098;2022-08-27T08:28:17;5.70;;;2.55;;
9789;SDS011;4934;50.852;8.098;2022-08-27T08:30:42;3.88;;;2.08;;
9789;SDS011;4934;50.852;8.098;2022-08-27T08:33:08;4.63;;;2.22;;
9789;SDS011;4934;50.852;8.098;2022-08-27T08:35:36;3.33;;;2.35;;
9789;SDS011;4934;50.852;8.098;2022-08-27T08:40:38;3.63;;;2.28;;
9789;SDS011;4934;50.852;8.098;2022-08-27T08:43:06;3.70;;;2.10;;
9789;SDS011;4934;50.852;8.098;2022-08-27T08:45:36;4.90;;;3.30;;
9789;SDS011;4934;50.852;8.098;2022-08-27T08:48:10;7.15;;;2.58;;
9789;SDS011;4934;50.852;8.098;2022-08-27T08:50:56;3.80;;;2.00;;
9789;SDS011;4934;50.852;8.098;2022-08-27T08:53:44;4.63;;;2.20;;
9789;SDS011;4934;50.852;8.098;2022-08-27T08:56:26;4.18;;;2.22;;
9789;SDS011;4934;50.852;8.098;2022-08-27T08:59:01;3.30;;;1.90;;
9789;SDS011;4934;50.852;8.098;2022-08-27T09:01:33;3.63;;;2.30;;
9789;SDS011;4934;50.852;8.098;2022-08-27T09:04:00;7.32;;;2.28;;
9789;SDS011;4934;50.852;8.098;2022-08-27T09:09:15;6.28;;;2.70;;
9789;SDS011;4934;50.852;8.098;2022-08-27T09:11:51;2.45;;;1.70;;
9789;SDS011;4934;50.852;8.098;2022-08-27T09:17:16;2.88;;;2.30;;
9789;SDS011;4934;50.852;8.098;2022-08-27T09:19:42;3.45;;;2.10;;
9789;SDS011;4934;50.852;8.098;2022-08-27T09:27:33;3.97;;;3.20;;
9789;SDS011;4934;50.852;8.098;2022-08-27T09:30:05;5.00;;;3.10;;
9789;SDS011;4934;50.852;8.098;2022-08-27T09:32:33;3.92;;;2.80;;
9789;SDS011;4934;50.852;8.098;2022-08-27T09:35:00;5.22;;;2.50;;
9789;SDS011;4934;50.852;8.098;2022-08-27T09:37:30;5.57;;;2.70;;
9789;SDS011;4934;50.852;8.098;2022-08-27T09:39:59;4.18;;;2.33;;
9789;SDS011;4934;50.852;8.098;2022-08-27T09:42:36;3.63;;;2.30;;
9789;SDS011;4934;50.852;8.098;2022-08-27T09:45:18;3.92;;;2.33;;
9789;SDS011;4934;50.852;8.098;2022-08-27T09:47:54;5.93;;;2.80;;
9789;SDS011;4934;50.852;8.098;2022-08-27T09:53:46;4.78;;;2.75;;
9789;SDS011;4934;50.852;8.098;2022-08-27T09:59:11;4.70;;;2.90;;
9789;SDS011;4934;50.852;8.098;2022-08-27T10:01:51;5.80;;;2.08;;
9789;SDS011;4934;50.852;8.098;2022-08-27T10:04:34;4.30;;;2.45;;
9789;SDS011;4934;50.852;8.098;2022-08-27T10:07:09;5.05;;;2.30;;
9789;SDS011;4934;50.852;8.098;2022-08-27T10:09:42;3.92;;;2.25;;
9789;SDS011;4934;50.852;8.098;2022-08-27T10:12:21;2.63;;;2.30;;
9789;SDS011;4934;50.852;8.098;2022-08-27T10:15:11;3.83;;;2.33;;
9789;SDS011;4934;50.852;8.098;2022-08-27T10:20:39;3.80;;;2.22;;
9789;SDS011;4934;50.852;8.098;2022-08-27T10:26:23;3.63;;;2.47;;
9789;SDS011;4934;50.852;8.098;2022-08-27T10:29:02;2.97;;;2.35;;
9789;SDS011;4934;50.852;8.098;2022-08-27T10:32:01;3.55;;;2.28;;
9789;SDS011;4934;50.852;8.098;2022-08-27T10:34:45;4.00;;;2.10;;
9789;SDS011;4934;50.852;8.098;2022-08-27T10:37:35;3.60;;;2.53;;
9789;SDS011;4934;50.852;8.098;2022-08-27T10:40:11;3.00;;;2.03;;
9789;SDS011;4934;50.852;8.098;2022-08-27T10:45:31;4.18;;;2.53;;
9789;SDS011;4934;50.852;8.098;2022-08-27T10:48:33;2.83;;;2.08;;
9789;SDS011;4934;50.852;8.098;2022-08-27T10:51:07;2.30;;;1.70;;
9789;SDS011;4934;50.852;8.098;2022-08-27T10:56:29;2.90;;;1.98;;
9789;SDS011;4934;50.852;8.098;2022-08-27T10:58:59;1.67;;;1.45;;
9789;SDS011;4934;50.852;8.098;2022-08-27T11:01:48;2.42;;;1.90;;
9789;SDS011;4934;50.852;8.098;2022-08-27T11:04:27;2.22;;;1.70;;
9789;SDS011;4934;50.852;8.098;2022-08-27T11:06:57;2.80;;;1.30;;
9789;SDS011;4934;50.852;8.098;2022-08-27T11:09:40;2.10;;;1.75;;
9789;SDS011;4934;50.852;8.098;2022-08-27T11:12:36;2.13;;;1.42;;
9789;SDS011;4934;50.852;8.098;2022-08-27T11:20:33;2.20;;;1.60;;
9789;SDS011;4934;50.852;8.098;2022-08-27T11:23:22;2.35;;;1.58;;
9789;SDS011;4934;50.852;8.098;2022-08-27T11:26:09;3.15;;;1.98;;
9789;SDS011;4934;50.852;8.098;2022-08-27T11:28:41;3.08;;;2.20;;
9789;SDS011;4934;50.852;8.098;2022-08-27T11:31:24;3.22;;;1.98;;
9789;SDS011;4934;50.852;8.098;2022-08-27T11:34:09;2.58;;;2.00;;
9789;SDS011;4934;50.852;8.098;2022-08-27T11:42:55;2.85;;;1.90;;
9789;SDS011;4934;50.852;8.098;2022-08-27T11:45:29;3.05;;;2.10;;
9789;SDS011;4934;50.852;8.098;2022-08-27T11:48:54;4.47;;;2.65;;
9789;SDS011;4934;50.852;8.098;2022-08-27T11:51:03;2.83;;;2.08;;
9789;SDS011;4934;50.852;8.098;2022-08-27T11:53:54;2.33;;;2.13;;
9789;SDS011;4934;50.852;8.098;2022-08-27T11:58:52;2.85;;;2.10;;
9789;SDS011;4934;50.852;8.098;2022-08-27T12:01:28;3.03;;;1.88;;
9789;SDS011;4934;50.852;8.098;2022-08-27T12:04:39;4.00;;;2.35;;
9789;SDS011;4934;50.852;8.098;2022-08-27T12:09:51;2.58;;;2.00;;
9789;SDS011;4934;50.852;8.098;2022-08-27T12:12:20;3.13;;;2.35;;
9789;SDS011;4934;50.852;8.098;2022-08-27T12:15:16;5.13;;;3.35;;
9789;SDS011;4934;50.852;8.098;2022-08-27T12:20:52;4.45;;;2.47;;
9789;SDS011;4934;50.852;8.098;2022-08-27T12:26:38;3.78;;;3.10;;
9789;SDS011;4934;50.852;8.098;2022-08-27T12:35:14;3.42;;;2.70;;
9789;SDS011;4934;50.852;8.098;2022-08-27T12:37:50;3.38;;;2.88;;
9789;SDS011;4934;50.852;8.098;2022-08-27T12:40:25;3.83;;;3.08;;
9789;SDS011;4934;50.852;8.098;2022-08-27T12:43:04;3.72;;;2.83;;
9789;SDS011;4934;50.852;8.098;2022-08-27T12:45:31;3.60;;;2.80;;
9789;SDS011;4934;50.852;8.098;2022-08-27T12:47:58;3.25;;;2.85;;
9789;SDS011;4934;50.852;8.098;2022-08-27T12:50:27;4.15;;;3.08;;
9789;SDS011;4934;50.852;8.098;2022-08-27T12:55:45;4.28;;;3.13;;
9789;SDS011;4934;50.852;8.098;2022-08-27T13:03:33;3.22;;;2.40;;
9789;SDS011;4934;50.852;8.098;2022-08-27T13:06:12;7.13;;;2.60;;
9789;SDS011;4934;50.852;8.098;2022-08-27T13:08:53;4.40;;;2.92;;
9789;SDS011;4934;50.852;8.098;2022-08-27T13:11:21;3.78;;;2.75;;
9789;SDS011;4934;50.852;8.098;2022-08-27T13:13:49;3.40;;;2.80;;
9789;SDS011;4934;50.852;8.098;2022-08-27T13:16:16;5.15;;;4.00;;
9789;SDS011;4934;50.852;8.098;2022-08-27T13:18:47;6.93;;;4.60;;
9789;SDS011;4934;50.852;8.098;2022-08-27T13:21:20;8.60;;;4.47;;
9789;SDS011;4934;50.852;8.098;2022-08-27T13:23:54;8.95;;;5.40;;
9789;SDS011;4934;50.852;8.098;2022-08-27T13:26:23;7.82;;;5.53;;
9789;SDS011;4934;50.852;8.098;2022-08-27T13:28:51;9.02;;;4.57;;
9789;SDS011;4934;50.852;8.098;2022-08-27T13:31:17;6.05;;;5.07;;
9789;SDS011;4934;50.852;8.098;2022-08-27T13:33:46;7.40;;;5.35;;
9789;SDS011;4934;50.852;8.098;2022-08-27T13:36:12;10.07;;;5.70;;
9789;SDS011;4934;50.852;8.098;2022-08-27T13:38:39;7.30;;;5.15;;
9789;SDS011;4934;50.852;8.098;2022-08-27T13:41:25;9.07;;;4.68;;
9789;SDS011;4934;50.852;8.098;2022-08-27T13:43:53;5.85;;;4.30;;
9789;SDS011;4934;50.852;8.098;2022-08-27T13:46:21;8.50;;;4.93;;
9789;SDS011;4934;50.852;8.098;2022-08-27T13:48:53;6.82;;;5.05;;
9789;SDS011;4934;50.852;8.098;2022-08-27T13:51:29;8.40;;;4.78;;
9789;SDS011;4934;50.852;8.098;2022-08-27T13:53:58;10.15;;;5.32;;
9789;SDS011;4934;50.852;8.098;2022-08-27T13:56:41;6.88;;;4.13;;
9789;SDS011;4934;50.852;8.098;2022-08-27T14:04:43;5.82;;;4.10;;
9789;SDS011;4934;50.852;8.098;2022-08-27T14:09:49;6.20;;;3.65;;
9789;SDS011;4934;50.852;8.098;2022-08-27T14:12:27;8.57;;;3.70;;
9789;SDS011;4934;50.852;8.098;2022-08-27T14:14:53;5.97;;;3.33;;
9789;SDS011;4934;50.852;8.098;2022-08-27T14:17:24;8.88;;;4.45;;
9789;SDS011;4934;50.852;8.098;2022-08-27T14:19:59;8.82;;;3.67;;
9789;SDS011;4934;50.852;8.098;2022-08-27T14:22:26;7.53;;;3.35;;
9789;SDS011;4934;50.852;8.098;2022-08-27T14:24:51;5.88;;;3.38;;
9789;SDS011;4934;50.852;8.098;2022-08-27T14:27:18;9.80;;;3.95;;
9789;SDS011;4934;50.852;8.098;2022-08-27T14:29:44;5.75;;;3.38;;
9789;SDS011;4934;50.852;8.098;2022-08-27T14:32:14;9.35;;;3.65;;
9789;SDS011;4934;50.852;8.098;2022-08-27T14:34:42;5.35;;;3.22;;
9789;SDS011;4934;50.852;8.098;2022-08-27T14:37:09;7.82;;;3.22;;
9789;SDS011;4934;50.852;8.098;2022-08-27T14:39:36;7.10;;;3.03;;
9789;SDS011;4934;50.852;8.098;2022-08-27T14:42:02;5.15;;;2.78;;
9789;SDS011;4934;50.852;8.098;2022-08-27T14:44:27;4.85;;;2.42;;
9789;SDS011;4934;50.852;8.098;2022-08-27T14:46:53;5.65;;;2.83;;
9789;SDS011;4934;50.852;8.098;2022-08-27T14:49:24;6.13;;;2.63;;
9789;SDS011;4934;50.852;8.098;2022-08-27T14:51:53;5.45;;;2.30;;
9789;SDS011;4934;50.852;8.098;2022-08-27T14:54:19;3.75;;;2.40;;
9789;SDS011;4934;50.852;8.098;2022-08-27T14:56:44;4.32;;;2.58;;
9789;SDS011;4934;50.852;8.098;2022-08-27T14:59:10;6.57;;;2.63;;
9789;SDS011;4934;50.852;8.098;2022-08-27T15:01:35;6.78;;;3.08;;
9789;SDS011;4934;50.852;8.098;2022-08-27T15:04:02;6.60;;;2.58;;
9789;SDS011;4934;50.852;8.098;2022-08-27T15:06:28;7.30;;;2.60;;
9789;SDS011;4934;50.852;8.098;2022-08-27T15:08:54;7.57;;;3.15;;
9789;SDS011;4934;50.852;8.098;2022-08-27T15:11:21;4.80;;;2.67;;
9789;SDS011;4934;50.852;8.098;2022-08-27T15:13:50;4.60;;;3.00;;
9789;SDS011;4934;50.852;8.098;2022-08-27T15:16:29;3.88;;;2.80;;
9789;SDS011;4934;50.852;8.098;2022-08-27T15:18:57;7.68;;;2.83;;
9789;SDS011;4934;50.852;8.098;2022-08-27T15:21:24;8.68;;;3.30;;
9789;SDS011;4934;50.852;8.098;2022-08-27T15:23:52;6.95;;;2.80;;
9789;SDS011;4934;50.852;8.098;2022-08-27T15:26:21;10.63;;;2.95;;
9789;SDS011;4934;50.852;8.098;2022-08-27T15:28:47;7.82;;;2.58;;
9789;SDS011;4934;50.852;8.098;2022-08-27T15:31:12;6.72;;;2.88;;
9789;SDS011;4934;50.852;8.098;2022-08-27T15:33:38;5.47;;;2.85;;
9789;SDS011;4934;50.852;8.098;2022-08-27T15:36:03;10.93;;;2.90;;
9789;SDS011;4934;50.852;8.098;2022-08-27T15:38:29;6.88;;;2.97;;
9789;SDS011;4934;50.852;8.098;2022-08-27T15:40:55;7.53;;;3.60;;
9789;SDS011;4934;50.852;8.098;2022-08-27T15:43:20;7.53;;;2.65;;
9789;SDS011;4934;50.852;8.098;2022-08-27T15:45:47;6.07;;;2.65;;
9789;SDS011;4934;50.852;8.098;2022-08-27T15:48:12;10.68;;;3.47;;
9789;SDS011;4934;50.852;8.098;2022-08-27T15:50:38;8.77;;;3.47;;
9789;SDS011;4934;50.852;8.098;2022-08-27T15:53:05;7.03;;;3.28;;
9789;SDS011;4934;50.852;8.098;2022-08-27T15:55:34;6.60;;;3.22;;
9789;SDS011;4934;50.852;8.098;2022-08-27T15:58:03;7.47;;;3.38;;
9789;SDS011;4934;50.852;8.098;2022-08-27T16:00:30;6.55;;;3.70;;
9789;SDS011;4934;50.852;8.098;2022-08-27T16:05:25;10.02;;;4.22;;
9789;SDS011;4934;50.852;8.098;2022-08-27T16:07:54;7.50;;;3.50;;
9789;SDS011;4934;50.852;8.098;2022-08-27T16:10:20;5.55;;;3.47;;
9789;SDS011;4934;50.852;8.098;2022-08-27T16:12:45;11.00;;;3.45;;
9789;SDS011;4934;50.852;8.098;2022-08-27T16:15:11;10.35;;;4.65;;
9789;SDS011;4934;50.852;8.098;2022-08-27T16:17:38;8.57;;;3.03;;
9789;SDS011;4934;50.852;8.098;2022-08-27T16:20:05;5.95;;;3.50;;
9789;SDS011;4934;50.852;8.098;2022-08-27T16:22:32;5.97;;;3.10;;
9789;SDS011;4934;50.852;8.098;2022-08-27T16:24:59;7.55;;;2.80;;
9789;SDS011;4934;50.852;8.098;2022-08-27T16:27:25;6.57;;;3.33;;
9789;SDS011;4934;50.852;8.098;2022-08-27T16:29:50;9.02;;;3.75;;
9789;SDS011;4934;50.852;8.098;2022-08-27T16:32:17;8.55;;;4.50;;
9789;SDS011;4934;50.852;8.098;2022-08-27T16:34:43;11.38;;;5.25;;
9789;SDS011;4934;50.852;8.098;2022-08-27T16:37:11;14.30;;;3.55;;
9789;SDS011;4934;50.852;8.098;2022-08-27T16:39:36;9.45;;;3.78;;
9789;SDS011;4934;50.852;8.098;2022-08-27T16:42:02;8.35;;;3.67;;
9789;SDS011;4934;50.852;8.098;2022-08-27T16:44:28;11.48;;;5.10;;
9789;SDS011;4934;50.852;8.098;2022-08-27T16:46:55;9.30;;;3.90;;
9789;SDS011;4934;50.852;8.098;2022-08-27T16:49:21;11.32;;;4.47;;
9789;SDS011;4934;50.852;8.098;2022-08-27T16:52:05;13.15;;;4.22;;
9789;SDS011;4934;50.852;8.098;2022-08-27T16:54:32;10.55;;;4.45;;
9789;SDS011;4934;50.852;8.098;2022-08-27T16:56:58;10.32;;;4.05;;
9789;SDS011;4934;50.852;8.098;2022-08-27T16:59:24;9.80;;;3.63;;